createdAt,value
2018-10-19T00:01:09.488Z,75.44
2018-10-19T00:03:37.817Z,75.10
2018-10-19T00:08:33.587Z,75.43
2018-10-19T00:11:01.952Z,76.66
2018-10-19T00:13:30.281Z,75.57
2018-10-19T00:22:19.536Z,76.81
2018-10-19T00:24:47.907Z,76.37
2018-10-19T00:27:16.317Z,76.20
2018-10-19T00:29:44.883Z,76.62
2018-10-19T00:32:13.458Z,76.76
2018-10-19T00:34:41.802Z,76.97
2018-10-19T00:37:10.738Z,76.21
2018-10-19T00:39:39.095Z,77.16
2018-10-19T00:42:07.472Z,76.79
2018-10-19T00:44:35.829Z,76.95
2018-10-19T00:47:04.233Z,76.44
2018-10-19T00:49:32.589Z,77.31
2018-10-19T00:52:00.924Z,76.83
2018-10-19T00:54:29.313Z,76.94
2018-10-19T00:56:57.754Z,76.39
2018-10-19T00:59:26.107Z,77.59
2018-10-19T01:01:54.435Z,77.53
2018-10-19T01:04:22.777Z,77.52
2018-10-19T01:06:51.172Z,77.32
2018-10-19T01:09:19.520Z,77.08
2018-10-19T01:11:47.866Z,77.29
2018-10-19T01:14:16.200Z,77.73
2018-10-19T01:16:44.554Z,77.24
2018-10-19T01:19:12.888Z,77.64
2018-10-19T01:21:41.235Z,77.05
2018-10-19T01:24:09.613Z,77.00
2018-10-19T01:26:37.967Z,77.34
2018-10-19T01:29:06.404Z,77.37
2018-10-19T01:31:35.061Z,76.79
2018-10-19T01:34:03.415Z,77.04
2018-10-19T01:36:37.121Z,76.61
2018-10-19T01:39:07.420Z,76.98
2018-10-19T01:41:35.776Z,78.09
2018-10-19T01:44:04.129Z,76.82
2018-10-19T01:46:32.484Z,77.28
2018-10-19T01:49:00.825Z,77.92
2018-10-19T01:51:29.202Z,78.09
2018-10-19T01:53:57.544Z,77.51
2018-10-19T01:56:25.857Z,78.23
2018-10-19T01:58:54.168Z,77.96
2018-10-19T02:01:22.957Z,78.28
2018-10-19T02:03:51.461Z,77.67
2018-10-19T02:06:19.768Z,77.83
2018-10-19T02:08:48.089Z,77.81
2018-10-19T02:11:16.413Z,77.87
2018-10-19T02:13:44.770Z,77.21
2018-10-19T02:16:13.159Z,78.39
2018-10-19T02:18:41.507Z,77.23
2018-10-19T02:21:09.901Z,77.61
2018-10-19T02:23:38.205Z,78.62
2018-10-19T02:26:06.543Z,77.84
2018-10-19T02:28:34.856Z,79.04
2018-10-19T02:31:03.541Z,78.79
2018-10-19T02:33:31.886Z,78.53
2018-10-19T02:36:00.199Z,79.13
2018-10-19T02:38:28.613Z,78.38
2018-10-19T02:40:57.020Z,79.10
2018-10-19T02:43:25.407Z,78.25
2018-10-19T02:45:53.720Z,79.15
2018-10-19T02:48:22.059Z,78.98
2018-10-19T02:50:50.406Z,78.21
2018-10-19T02:53:18.874Z,78.51
2018-10-19T02:55:47.084Z,78.07
2018-10-19T02:58:15.409Z,78.14
2018-10-19T03:00:43.719Z,79.51
2018-10-19T03:03:12.078Z,78.23
2018-10-19T03:05:40.368Z,78.96
2018-10-19T03:08:08.682Z,79.43
2018-10-19T03:10:36.992Z,79.23
2018-10-19T03:13:05.439Z,78.29
2018-10-19T03:15:33.752Z,77.76
2018-10-19T03:18:02.093Z,78.03
2018-10-19T03:20:30.443Z,77.51
2018-10-19T03:22:58.880Z,77.38
2018-10-19T03:25:27.195Z,78.24
2018-10-19T03:27:55.495Z,79.38
2018-10-19T03:30:23.813Z,78.32
2018-10-19T03:32:52.233Z,78.81
2018-10-19T03:35:20.473Z,78.89
2018-10-19T03:37:48.797Z,79.17
2018-10-19T03:40:17.139Z,80.87
2018-10-19T03:42:45.476Z,79.61
2018-10-19T03:45:13.830Z,80.02
2018-10-19T03:47:42.136Z,79.87
2018-10-19T03:50:10.456Z,80.09
2018-10-19T03:52:38.792Z,80.50
2018-10-19T03:55:07.170Z,81.14
2018-10-19T03:57:35.495Z,81.42
2018-10-19T04:00:04.013Z,80.88
2018-10-19T04:02:32.377Z,81.27
2018-10-19T04:05:00.724Z,81.34
2018-10-19T04:07:29.108Z,81.04
2018-10-19T04:09:57.442Z,81.61
2018-10-19T04:12:25.755Z,81.11
2018-10-19T04:14:54.122Z,81.98
2018-10-19T04:17:22.417Z,81.43
2018-10-19T04:19:50.763Z,80.63
2018-10-19T04:22:19.092Z,80.68
2018-10-19T04:24:47.415Z,81.10
2018-10-19T04:27:15.803Z,81.54
2018-10-19T04:29:44.093Z,81.25
2018-10-19T04:32:12.455Z,82.19
2018-10-19T04:34:40.756Z,82.49
2018-10-19T04:37:09.077Z,81.78
2018-10-19T04:39:37.407Z,81.72
2018-10-19T04:42:05.983Z,80.93
2018-10-19T04:44:34.220Z,82.06
2018-10-19T04:47:02.566Z,81.22
2018-10-19T04:49:30.894Z,81.09
2018-10-19T04:51:59.199Z,81.40
2018-10-19T04:54:27.507Z,81.78
2018-10-19T04:56:55.890Z,81.78
2018-10-19T04:59:24.169Z,81.27
2018-10-19T05:01:52.516Z,83.44
2018-10-19T05:04:20.853Z,83.33
2018-10-19T05:06:49.293Z,82.52
2018-10-19T05:09:17.628Z,82.15
2018-10-19T05:11:45.932Z,82.37
2018-10-19T05:14:14.292Z,82.98
2018-10-19T05:16:42.589Z,83.04
2018-10-19T05:19:10.922Z,83.04
2018-10-19T05:21:39.246Z,82.36
2018-10-19T05:24:07.565Z,82.33
2018-10-19T05:26:35.901Z,81.76
2018-10-19T05:29:04.264Z,81.95
2018-10-19T05:31:32.601Z,83.80
2018-10-19T05:34:00.933Z,82.66
2018-10-19T05:36:29.253Z,82.64
2018-10-19T05:38:57.584Z,82.34
2018-10-19T05:41:25.941Z,82.83
2018-10-19T05:43:54.327Z,83.15
2018-10-19T05:46:22.643Z,82.66
2018-10-19T05:48:51.064Z,81.59
2018-10-19T05:52:43.924Z,81.82
2018-10-19T05:55:12.237Z,81.57
2018-10-19T05:57:40.562Z,83.38
2018-10-19T06:00:10.020Z,82.39
2018-10-19T06:02:38.426Z,82.13
2018-10-19T06:05:07.207Z,82.98
2018-10-19T06:07:35.517Z,83.16
2018-10-19T06:10:03.859Z,82.95
2018-10-19T06:12:32.152Z,83.18
2018-10-19T06:15:00.500Z,82.97
2018-10-19T06:17:28.824Z,83.11
2018-10-19T06:19:57.148Z,83.14
2018-10-19T06:22:25.504Z,83.04
2018-10-19T06:24:53.812Z,82.73
2018-10-19T06:27:22.136Z,82.51
2018-10-19T06:29:50.445Z,81.98
2018-10-19T06:32:18.909Z,82.63
2018-10-19T06:34:47.102Z,83.07
2018-10-19T06:37:15.452Z,82.84
2018-10-19T06:39:43.789Z,83.06
2018-10-19T06:42:12.106Z,83.50
2018-10-19T06:44:40.456Z,83.12
2018-10-19T06:47:08.886Z,82.67
2018-10-19T06:49:37.137Z,82.50
2018-10-19T06:52:05.586Z,82.02
2018-10-19T06:54:33.896Z,82.27
2018-10-19T06:57:02.207Z,82.21
2018-10-19T06:59:30.547Z,82.14
2018-10-19T07:01:58.927Z,82.13
2018-10-19T07:04:27.230Z,82.16
2018-10-19T07:06:55.554Z,81.70
2018-10-19T07:09:23.904Z,81.12
2018-10-19T07:11:52.206Z,81.55
2018-10-19T07:14:20.530Z,81.55
2018-10-19T07:16:48.869Z,81.34
2018-10-19T07:19:17.197Z,80.90
2018-10-19T07:21:45.602Z,80.80
2018-10-19T07:24:13.913Z,80.78
2018-10-19T07:26:42.278Z,80.40
2018-10-19T07:29:10.601Z,80.55
2018-10-19T07:31:38.972Z,81.07
2018-10-19T07:34:07.317Z,80.32
2018-10-19T07:36:35.760Z,80.04
2018-10-19T07:39:04.784Z,79.74
2018-10-19T07:41:33.101Z,78.46
2018-10-19T07:44:01.419Z,78.63
2018-10-19T07:46:29.778Z,79.21
2018-10-19T07:48:58.097Z,78.97
2018-10-19T07:51:26.416Z,79.33
2018-10-19T07:53:54.824Z,78.34
2018-10-19T07:56:23.141Z,78.71
2018-10-19T07:58:51.467Z,77.76
2018-10-19T08:01:19.879Z,77.82
2018-10-19T08:03:48.239Z,78.13
2018-10-19T08:06:16.548Z,78.46
2018-10-19T08:08:44.882Z,75.86
2018-10-19T08:11:13.349Z,77.54
2018-10-19T08:13:41.620Z,77.50
2018-10-19T08:16:09.935Z,74.29
2018-10-19T08:18:38.270Z,74.89
2018-10-19T08:21:07.289Z,76.67
2018-10-19T08:23:35.585Z,76.32
2018-10-19T08:26:04.143Z,75.11
2018-10-19T08:28:32.448Z,76.42
2018-10-19T08:31:00.887Z,75.22
2018-10-19T08:33:29.488Z,73.27
2018-10-19T08:35:57.990Z,73.71
2018-10-19T08:38:26.313Z,73.87
2018-10-19T08:40:54.669Z,71.96
2018-10-19T08:43:23.027Z,72.72
2018-10-19T08:45:51.368Z,71.94
2018-10-19T08:48:19.717Z,69.58
2018-10-19T08:50:48.047Z,72.19
2018-10-19T08:53:16.428Z,71.66
2018-10-19T08:55:44.727Z,69.63
2018-10-19T08:58:13.107Z,70.90
2018-10-19T09:00:41.431Z,71.88
2018-10-19T09:03:09.843Z,71.97
2018-10-19T09:05:38.098Z,69.35
2018-10-19T09:08:06.446Z,71.24
2018-10-19T09:10:34.825Z,67.91
2018-10-19T09:13:03.189Z,69.58
2018-10-19T09:15:31.523Z,66.43
2018-10-19T09:17:59.925Z,67.04
2018-10-19T09:20:28.256Z,66.09
2018-10-19T09:22:56.619Z,68.11
2018-10-19T09:25:24.960Z,66.42
2018-10-19T09:27:53.276Z,65.67
2018-10-19T09:30:21.600Z,64.80
2018-10-19T09:32:49.929Z,64.48
2018-10-19T09:35:18.438Z,64.49
2018-10-19T09:37:46.704Z,66.05
2018-10-19T09:40:15.103Z,65.73
2018-10-19T09:42:43.410Z,63.97
2018-10-19T09:45:11.788Z,63.80
2018-10-19T09:47:40.204Z,64.30
2018-10-19T09:50:08.521Z,61.74
2018-10-19T09:52:36.842Z,63.95
2018-10-19T09:55:06.248Z,61.96
2018-10-19T09:57:34.537Z,63.77
2018-10-19T10:00:02.869Z,61.63
2018-10-19T10:02:31.198Z,60.93
2018-10-19T10:04:59.661Z,61.75
2018-10-19T10:07:28.006Z,62.14
2018-10-19T10:09:56.328Z,62.27
2018-10-19T10:12:24.673Z,62.65
2018-10-19T10:14:53.058Z,57.27
2018-10-19T10:17:21.334Z,63.89
2018-10-19T10:19:49.646Z,65.84
2018-10-19T10:22:18.054Z,59.61
2018-10-19T10:24:46.368Z,63.78
2018-10-19T10:27:14.685Z,62.20
2018-10-19T10:29:43.020Z,59.83
2018-10-19T10:32:11.409Z,59.85
2018-10-19T10:34:40.012Z,60.64
2018-10-19T10:37:08.400Z,58.07
2018-10-19T10:39:36.715Z,59.69
2018-10-19T10:42:05.298Z,59.39
2018-10-19T10:44:33.632Z,59.13
2018-10-19T10:47:02.091Z,58.80
2018-10-19T10:49:30.368Z,59.54
2018-10-19T10:51:58.683Z,59.06
2018-10-19T10:54:27.023Z,59.82
2018-10-19T10:56:55.336Z,59.68
2018-10-19T10:59:23.702Z,59.69
2018-10-19T11:01:52.031Z,59.92
2018-10-19T11:04:20.406Z,60.09
2018-10-19T11:06:48.743Z,59.25
2018-10-19T11:09:17.140Z,58.03
2018-10-19T11:11:46.480Z,57.73
2018-10-19T11:14:14.851Z,56.43
2018-10-19T11:16:43.209Z,57.02
2018-10-19T11:19:11.616Z,56.92
2018-10-19T11:21:39.999Z,57.82
2018-10-19T11:24:08.464Z,57.76
2018-10-19T11:26:38.667Z,58.12
2018-10-19T11:29:07.117Z,58.54
2018-10-19T11:31:36.242Z,58.54
2018-10-19T11:34:04.731Z,58.12
2018-10-19T11:36:43.525Z,58.88
2018-10-19T11:39:12.110Z,58.21
2018-10-19T11:41:41.116Z,58.45
2018-10-19T11:44:09.517Z,58.01
2018-10-19T11:46:37.993Z,57.85
2018-10-19T11:49:06.417Z,58.23
2018-10-19T11:51:34.809Z,58.38
2018-10-19T11:54:03.188Z,58.41
2018-10-19T11:56:31.553Z,59.19
2018-10-19T11:58:59.985Z,58.68
2018-10-19T12:01:28.624Z,58.97
2018-10-19T12:03:57.150Z,58.65
2018-10-19T12:06:25.589Z,58.05
2018-10-19T12:08:53.940Z,58.58
2018-10-19T12:11:22.330Z,58.95
2018-10-19T12:13:50.770Z,59.09
2018-10-19T12:16:19.260Z,59.17
2018-10-19T12:18:47.598Z,59.43
2018-10-19T12:21:16.119Z,58.65
2018-10-19T12:23:44.514Z,58.80
2018-10-19T12:26:12.945Z,58.86
2018-10-19T12:28:41.334Z,58.65
2018-10-19T12:31:10.324Z,57.91
2018-10-19T12:33:38.723Z,57.80
2018-10-19T12:36:07.102Z,57.58
2018-10-19T12:38:35.832Z,57.28
2018-10-19T12:41:04.271Z,57.77
2018-10-19T12:43:32.740Z,57.64
2018-10-19T12:46:22.974Z,57.55
2018-10-19T12:48:51.453Z,58.10
2018-10-19T12:51:20.623Z,57.00
2018-10-19T12:53:49.311Z,57.00
2018-10-19T12:56:18.918Z,57.18
2018-10-19T12:58:48.124Z,57.29
2018-10-19T13:01:17.324Z,57.73
2018-10-19T13:03:45.866Z,58.29
2018-10-19T13:06:14.682Z,57.81
2018-10-19T13:08:43.195Z,58.05
2018-10-19T13:11:11.734Z,57.95
2018-10-19T13:13:40.125Z,58.19
2018-10-19T13:16:08.774Z,57.89
2018-10-19T13:18:37.151Z,58.02
2018-10-19T13:21:05.572Z,57.95
2018-10-19T13:23:34.527Z,57.61
2018-10-19T13:26:03.253Z,57.85
2018-10-19T13:28:31.744Z,58.09
2018-10-19T13:31:00.192Z,57.48
2018-10-19T13:33:28.601Z,57.66
2018-10-19T13:35:57.080Z,57.45
2018-10-19T13:38:25.648Z,57.59
2018-10-19T13:40:54.860Z,56.63
2018-10-19T13:43:23.530Z,56.82
2018-10-19T13:45:52.405Z,56.89
2018-10-19T13:48:21.426Z,57.29
2018-10-19T13:50:49.845Z,57.48
2018-10-19T13:53:18.310Z,56.67
2018-10-19T13:55:46.692Z,57.32
2018-10-19T13:58:15.616Z,57.08
2018-10-19T14:00:44.020Z,57.85
2018-10-19T14:03:12.532Z,57.27
2018-10-19T14:05:41.028Z,57.69
2018-10-19T14:08:09.377Z,56.96
2018-10-19T14:10:37.730Z,56.81
2018-10-19T14:13:06.672Z,56.94
2018-10-19T14:15:35.107Z,57.14
2018-10-19T14:18:03.817Z,57.38
2018-10-19T14:20:32.249Z,57.27
2018-10-19T14:23:00.679Z,57.04
2018-10-19T14:25:29.022Z,57.10
2018-10-19T14:27:57.431Z,57.22
2018-10-19T14:30:25.829Z,57.40
2018-10-19T14:32:54.346Z,57.04
2018-10-19T14:35:22.862Z,57.37
2018-10-19T14:37:51.346Z,57.19
2018-10-19T14:40:20.673Z,57.18
2018-10-19T14:42:49.257Z,57.48
2018-10-19T14:45:18.312Z,57.08
2018-10-19T14:47:47.383Z,57.18
2018-10-19T14:50:17.157Z,57.68
2018-10-19T14:52:45.533Z,57.59
2018-10-19T14:55:18.329Z,57.59
2018-10-19T14:57:46.709Z,57.82
2018-10-19T15:00:16.273Z,58.11
2018-10-19T15:02:44.783Z,57.94
2018-10-19T15:05:15.611Z,57.63
2018-10-19T15:07:43.997Z,57.64
2018-10-19T15:10:14.775Z,57.89
2018-10-19T15:12:43.433Z,58.37
2018-10-19T15:15:14.386Z,58.24
2018-10-19T15:17:43.059Z,58.22
2018-10-19T15:20:12.136Z,58.26
2018-10-19T15:22:40.630Z,58.36
2018-10-19T15:25:09.832Z,58.25
2018-10-19T15:27:39.132Z,58.65
2018-10-19T15:30:08.565Z,58.54
2018-10-19T15:32:37.014Z,58.60
2018-10-19T15:35:05.900Z,58.83
2018-10-19T15:37:34.402Z,59.12
2018-10-19T15:40:02.864Z,58.99
2018-10-19T15:42:31.329Z,59.27
2018-10-19T15:44:59.708Z,59.66
2018-10-19T15:47:31.495Z,59.92
2018-10-19T15:49:59.888Z,59.81
2018-10-19T15:52:28.863Z,59.66
2018-10-19T15:54:57.284Z,59.78
2018-10-19T15:57:25.753Z,60.29
2018-10-19T15:59:54.250Z,60.11
2018-10-19T16:02:22.720Z,60.14
2018-10-19T16:04:51.233Z,60.51
2018-10-19T16:07:20.077Z,60.59
2018-10-19T16:09:48.727Z,60.39
2018-10-19T16:12:17.129Z,61.12
2018-10-19T16:14:45.517Z,61.15
2018-10-19T16:17:13.861Z,61.04
2018-10-19T16:19:43.155Z,60.91
2018-10-19T16:22:11.565Z,61.51
2018-10-19T16:24:39.949Z,61.45
2018-10-19T16:27:08.440Z,61.12
2018-10-19T16:29:36.833Z,61.67
2018-10-19T16:32:05.777Z,61.70
2018-10-19T16:34:34.154Z,61.50
2018-10-19T16:37:02.613Z,61.63
2018-10-19T16:39:30.979Z,61.85
2018-10-19T16:41:59.511Z,62.08
2018-10-19T16:44:27.871Z,62.59
2018-10-19T16:46:56.340Z,62.52
2018-10-19T16:49:24.720Z,62.30
2018-10-19T16:51:53.153Z,62.30
2018-10-19T16:54:21.548Z,62.76
2018-10-19T16:56:49.953Z,63.19
2018-10-19T16:59:18.337Z,63.68
2018-10-19T17:01:46.738Z,63.16
2018-10-19T17:04:15.187Z,63.80
2018-10-19T17:06:43.679Z,64.65
2018-10-19T17:09:13.716Z,64.05
2018-10-19T17:11:42.529Z,63.60
2018-10-19T17:14:11.478Z,64.02
2018-10-19T17:16:39.905Z,64.54
2018-10-19T17:19:08.875Z,64.93
2018-10-19T17:21:37.250Z,64.79
2018-10-19T17:24:05.734Z,64.23
2018-10-19T17:26:34.211Z,64.24
2018-10-19T17:29:02.708Z,64.47
2018-10-19T17:31:31.197Z,64.91
2018-10-19T17:33:59.604Z,64.46
2018-10-19T17:36:28.000Z,64.91
2018-10-19T17:38:56.428Z,64.58
2018-10-19T17:41:24.898Z,64.82
2018-10-19T17:43:53.324Z,65.51
2018-10-19T17:46:21.695Z,64.91
2018-10-19T17:48:50.329Z,65.34
2018-10-19T17:51:18.783Z,64.46
2018-10-19T17:53:47.178Z,65.13
2018-10-19T17:56:15.592Z,65.37
2018-10-19T17:58:44.003Z,65.74
2018-10-19T18:01:12.448Z,65.77
2018-10-19T18:03:40.921Z,65.50
2018-10-19T18:06:09.496Z,65.68
2018-10-19T18:08:37.781Z,65.86
2018-10-19T18:11:06.302Z,65.85
2018-10-19T18:13:34.663Z,66.49
2018-10-19T18:16:03.210Z,66.59
2018-10-19T18:18:31.556Z,67.12
2018-10-19T18:20:59.954Z,66.27
2018-10-19T18:23:28.427Z,66.23
2018-10-19T18:25:56.833Z,66.63
2018-10-19T18:28:25.239Z,66.81
2018-10-19T18:30:53.601Z,66.16
2018-10-19T18:33:22.006Z,66.34
2018-10-19T18:35:50.417Z,66.43
2018-10-19T18:38:18.932Z,66.66
2018-10-19T18:40:47.712Z,67.19
2018-10-19T18:43:16.100Z,67.37
2018-10-19T18:45:44.480Z,66.70
2018-10-19T18:48:12.992Z,66.87
2018-10-19T18:50:41.432Z,67.18
2018-10-19T18:53:10.173Z,67.22
2018-10-19T18:55:38.543Z,66.97
2018-10-19T18:58:06.995Z,67.46
2018-10-19T19:00:35.581Z,68.30
2018-10-19T19:03:03.949Z,67.74
2018-10-19T19:05:32.416Z,68.26
2018-10-19T19:08:00.817Z,68.69
2018-10-19T19:10:29.220Z,68.87
2018-10-19T19:13:30.803Z,68.82
2018-10-19T19:15:59.716Z,68.25
2018-10-19T19:18:28.086Z,68.74
2018-10-19T19:20:56.948Z,68.04
2018-10-19T19:23:25.496Z,68.18
2018-10-19T19:25:59.565Z,68.33
2018-10-19T19:28:28.602Z,68.25
2018-10-19T19:30:57.092Z,69.04
2018-10-19T19:33:30.752Z,68.68
2018-10-19T19:35:59.184Z,68.65
2018-10-19T19:38:27.657Z,68.76
2018-10-19T19:41:01.525Z,68.75
2018-10-19T19:43:29.923Z,69.23
2018-10-19T19:45:58.311Z,68.94
2018-10-19T19:48:32.138Z,69.30
2018-10-19T19:51:00.553Z,69.72
2018-10-19T19:53:28.965Z,69.88
2018-10-19T19:55:57.348Z,70.14
2018-10-19T19:58:26.169Z,69.48
2018-10-19T20:00:54.672Z,70.45
2018-10-19T20:03:23.057Z,70.26
2018-10-19T20:05:52.165Z,69.35
2018-10-19T20:08:20.555Z,70.67
2018-10-19T20:10:49.001Z,70.01
2018-10-19T20:13:17.392Z,69.92
2018-10-19T20:15:45.809Z,70.49
2018-10-19T20:18:14.285Z,69.92
2018-10-19T20:20:42.733Z,70.11
2018-10-19T20:23:11.266Z,69.62
2018-10-19T20:25:39.796Z,70.51
2018-10-19T20:28:08.250Z,69.91
2018-10-19T20:30:36.741Z,70.77
2018-10-19T20:33:05.200Z,70.31
2018-10-19T20:35:33.600Z,70.40
2018-10-19T20:38:02.130Z,69.92
2018-10-19T20:40:30.584Z,70.53
2018-10-19T20:42:59.081Z,70.39
2018-10-19T20:45:27.461Z,71.22
2018-10-19T20:47:55.972Z,72.18
2018-10-19T20:50:24.519Z,71.74
2018-10-19T20:52:52.988Z,71.23
2018-10-19T20:55:21.454Z,71.65
2018-10-19T20:57:49.916Z,71.13
2018-10-19T21:00:18.290Z,71.77
2018-10-19T21:02:46.774Z,71.09
2018-10-19T21:05:15.318Z,71.64
2018-10-19T21:07:43.736Z,71.65
2018-10-19T21:10:13.624Z,71.24
2018-10-19T21:12:42.083Z,70.97
2018-10-19T21:15:12.816Z,71.53
2018-10-19T21:17:42.289Z,71.90
2018-10-19T21:20:11.677Z,71.74
2018-10-19T21:22:40.053Z,71.80
2018-10-19T21:25:09.692Z,72.04
2018-10-19T21:27:38.936Z,72.40
2018-10-19T21:30:08.739Z,71.98
2018-10-19T21:32:37.521Z,72.15
2018-10-19T21:35:05.993Z,72.03
2018-10-19T21:37:34.398Z,72.00
2018-10-19T21:40:03.115Z,72.82
2018-10-19T21:42:31.493Z,71.97
2018-10-19T21:44:59.854Z,72.33
2018-10-19T21:47:28.542Z,71.94
2018-10-19T21:49:57.197Z,72.30
2018-10-19T21:52:25.833Z,72.89
2018-10-19T21:54:54.227Z,72.85
2018-10-19T21:57:22.612Z,72.22
2018-10-19T21:59:50.979Z,72.81
2018-10-19T22:02:20.169Z,72.97
2018-10-19T22:04:48.760Z,72.76
2018-10-19T22:07:17.249Z,72.45
2018-10-19T22:09:45.712Z,72.68
2018-10-19T22:12:14.086Z,72.77
2018-10-19T22:14:43.439Z,72.93
2018-10-19T22:17:11.908Z,73.06
2018-10-19T22:19:41.684Z,74.03
2018-10-19T22:22:10.119Z,74.00
2018-10-19T22:24:38.483Z,73.95
2018-10-19T22:27:06.922Z,73.46
2018-10-19T22:29:35.262Z,73.42
2018-10-19T22:32:03.646Z,72.97
2018-10-19T22:34:32.099Z,73.19
2018-10-19T22:37:00.506Z,74.34
2018-10-19T22:39:28.904Z,73.85
2018-10-19T22:41:57.282Z,73.87
2018-10-19T22:44:25.692Z,73.45
2018-10-19T22:46:54.138Z,73.87
2018-10-19T22:49:22.482Z,73.83
2018-10-19T22:51:50.853Z,74.52
2018-10-19T22:54:19.221Z,73.50
2018-10-19T22:56:47.847Z,73.92
2018-10-19T22:59:16.978Z,74.30
2018-10-19T23:01:45.456Z,73.58
2018-10-19T23:04:13.842Z,74.84
2018-10-19T23:06:42.303Z,75.20
2018-10-19T23:09:10.719Z,74.57
2018-10-19T23:11:39.112Z,74.55
2018-10-19T23:14:07.589Z,73.77
2018-10-19T23:16:36.028Z,73.85
2018-10-19T23:19:04.410Z,75.74
2018-10-19T23:21:32.841Z,74.58
2018-10-19T23:24:01.228Z,75.87
2018-10-19T23:26:29.593Z,76.83
2018-10-19T23:28:57.972Z,75.54
2018-10-19T23:31:26.485Z,74.94
2018-10-19T23:33:54.841Z,75.23
2018-10-19T23:36:23.216Z,75.55
2018-10-19T23:38:51.648Z,76.44
2018-10-19T23:41:20.437Z,75.58
2018-10-19T23:43:48.866Z,76.23
2018-10-19T23:46:17.160Z,76.92
2018-10-19T23:48:45.501Z,76.83
2018-10-19T23:51:13.864Z,76.00
2018-10-19T23:53:42.233Z,75.70
2018-10-19T23:56:10.588Z,76.16
2018-10-19T23:58:38.930Z,76.89
